sensor_id;sensor_type;location;lat;lon;timestamp;temperature;humidity
7574;DHT22;3828;48.922;9.116;2023-02-28T00:01:33;-1.40;99.90
7574;DHT22;3828;48.922;9.116;2023-02-28T00:04:00;-1.40;99.90
7574;DHT22;3828;48.922;9.116;2023-02-28T00:06:27;-1.40;99.90
7574;DHT22;3828;48.922;9.116;2023-02-28T00:11:20;-1.40;99.90
7574;DHT22;3828;48.922;9.116;2023-02-28T00:16:18;-1.40;99.90
7574;DHT22;3828;48.922;9.116;2023-02-28T00:21:14;-1.50;99.90
7574;DHT22;3828;48.922;9.116;2023-02-28T00:23:41;-1.50;99.90
7574;DHT22;3828;48.922;9.116;2023-02-28T00:26:07;-1.50;99.90
7574;DHT22;3828;48.922;9.116;2023-02-28T00:28:34;-1.60;99.90
7574;DHT22;3828;48.922;9.116;2023-02-28T00:31:03;-1.50;99.90
7574;DHT22;3828;48.922;9.116;2023-02-28T00:33:30;-1.50;99.90
7574;DHT22;3828;48.922;9.116;2023-02-28T00:36:08;-1.50;99.90
7574;DHT22;3828;48.922;9.116;2023-02-28T00:38:35;-1.50;99.90
7574;DHT22;3828;48.922;9.116;2023-02-28T00:41:03;-1.50;99.90
7574;DHT22;3828;48.922;9.116;2023-02-28T00:43:32;0.50;99.90
7574;DHT22;3828;48.922;9.116;2023-02-28T00:45:59;-1.50;99.90
7574;DHT22;3828;48.922;9.116;2023-02-28T00:48:27;-1.50;99.90
7574;DHT22;3828;48.922;9.116;2023-02-28T00:50:54;-1.40;99.90
7574;DHT22;3828;48.922;9.116;2023-02-28T00:55:49;-1.50;99.90
7574;DHT22;3828;48.922;9.116;2023-02-28T00:58:16;-1.50;99.90
7574;DHT22;3828;48.922;9.116;2023-02-28T01:00:42;-1.50;99.90
7574;DHT22;3828;48.922;9.116;2023-02-28T01:03:14;-1.60;99.90
7574;DHT22;3828;48.922;9.116;2023-02-28T01:05:43;-1.60;99.90
7574;DHT22;3828;48.922;9.116;2023-02-28T01:08:09;-1.70;99.90
7574;DHT22;3828;48.922;9.116;2023-02-28T01:10:36;-1.70;99.90
7574;DHT22;3828;48.922;9.116;2023-02-28T01:13:04;-1.70;99.90
7574;DHT22;3828;48.922;9.116;2023-02-28T01:15:33;-1.70;99.90
7574;DHT22;3828;48.922;9.116;2023-02-28T01:18:00;-1.70;99.90
7574;DHT22;3828;48.922;9.116;2023-02-28T01:22:56;-1.80;99.90
7574;DHT22;3828;48.922;9.116;2023-02-28T01:25:22;-1.80;99.90
7574;DHT22;3828;48.922;9.116;2023-02-28T01:27:49;-1.80;99.90
7574;DHT22;3828;48.922;9.116;2023-02-28T01:30:17;-1.80;99.90
7574;DHT22;3828;48.922;9.116;2023-02-28T01:32:43;-1.80;99.90
7574;DHT22;3828;48.922;9.116;2023-02-28T01:35:10;-1.70;99.90
7574;DHT22;3828;48.922;9.116;2023-02-28T01:40:07;-1.80;99.90
7574;DHT22;3828;48.922;9.116;2023-02-28T01:42:34;-1.90;99.90
7574;DHT22;3828;48.922;9.116;2023-02-28T01:45:06;-1.90;99.90
7574;DHT22;3828;48.922;9.116;2023-02-28T01:47:39;-1.90;99.90
7574;DHT22;3828;48.922;9.116;2023-02-28T01:50:10;-1.90;99.90
7574;DHT22;3828;48.922;9.116;2023-02-28T01:52:39;-2.00;99.90
7574;DHT22;3828;48.922;9.116;2023-02-28T01:55:08;-2.00;99.90
7574;DHT22;3828;48.922;9.116;2023-02-28T01:57:39;-2.10;99.90
7574;DHT22;3828;48.922;9.116;2023-02-28T02:00:09;-2.10;99.90
7574;DHT22;3828;48.922;9.116;2023-02-28T02:02:39;-1.90;99.90
7574;DHT22;3828;48.922;9.116;2023-02-28T02:05:10;-1.80;99.90
7574;DHT22;3828;48.922;9.116;2023-02-28T02:07:41;-1.80;99.90
7574;DHT22;3828;48.922;9.116;2023-02-28T02:10:14;-1.70;99.90
7574;DHT22;3828;48.922;9.116;2023-02-28T02:12:58;-1.60;99.90
7574;DHT22;3828;48.922;9.116;2023-02-28T02:15:30;-1.60;99.90
7574;DHT22;3828;48.922;9.116;2023-02-28T02:18:04;-1.60;99.90
7574;DHT22;3828;48.922;9.116;2023-02-28T02:24:24;-1.70;99.90
7574;DHT22;3828;48.922;9.116;2023-02-28T02:27:24;-1.60;99.90
7574;DHT22;3828;48.922;9.116;2023-02-28T02:33:26;-1.60;99.90
7574;DHT22;3828;48.922;9.116;2023-02-28T02:36:00;-1.60;99.90
7574;DHT22;3828;48.922;9.116;2023-02-28T02:38:33;-1.60;99.90
7574;DHT22;3828;48.922;9.116;2023-02-28T02:41:07;-1.60;99.90
7574;DHT22;3828;48.922;9.116;2023-02-28T02:43:37;-1.60;99.90
7574;DHT22;3828;48.922;9.116;2023-02-28T02:46:10;1.40;99.90
7574;DHT22;3828;48.922;9.116;2023-02-28T02:48:40;-1.60;99.90
7574;DHT22;3828;48.922;9.116;2023-02-28T02:51:13;-1.50;99.90
7574;DHT22;3828;48.922;9.116;2023-02-28T02:53:45;-1.50;99.90
7574;DHT22;3828;48.922;9.116;2023-02-28T02:56:15;-1.50;99.90
7574;DHT22;3828;48.922;9.116;2023-02-28T02:58:45;-1.50;99.90
7574;DHT22;3828;48.922;9.116;2023-02-28T03:01:16;-1.50;99.90
7574;DHT22;3828;48.922;9.116;2023-02-28T03:03:54;-1.40;99.90
7574;DHT22;3828;48.922;9.116;2023-02-28T03:06:23;-0.40;99.90
7574;DHT22;3828;48.922;9.116;2023-02-28T03:08:50;-1.40;99.90
7574;DHT22;3828;48.922;9.116;2023-02-28T03:11:17;-1.30;99.90
7574;DHT22;3828;48.922;9.116;2023-02-28T03:17:00;-1.30;99.90
7574;DHT22;3828;48.922;9.116;2023-02-28T03:19:37;1.70;99.90
7574;DHT22;3828;48.922;9.116;2023-02-28T03:22:22;-1.20;99.90
7574;DHT22;3828;48.922;9.116;2023-02-28T03:24:56;-1.20;99.90
7574;DHT22;3828;48.922;9.116;2023-02-28T03:27:27;-1.10;99.90
7574;DHT22;3828;48.922;9.116;2023-02-28T03:30:00;-1.10;99.90
7574;DHT22;3828;48.922;9.116;2023-02-28T03:32:32;-1.10;99.90
7574;DHT22;3828;48.922;9.116;2023-02-28T03:35:03;-1.10;99.90
7574;DHT22;3828;48.922;9.116;2023-02-28T03:37:35;-1.10;99.90
7574;DHT22;3828;48.922;9.116;2023-02-28T03:40:06;-1.10;99.90
7574;DHT22;3828;48.922;9.116;2023-02-28T03:42:38;-1.10;99.90
7574;DHT22;3828;48.922;9.116;2023-02-28T03:45:11;-1.00;99.90
7574;DHT22;3828;48.922;9.116;2023-02-28T03:47:43;-1.00;99.90
7574;DHT22;3828;48.922;9.116;2023-02-28T03:50:15;-1.00;99.90
7574;DHT22;3828;48.922;9.116;2023-02-28T03:52:48;-1.00;99.90
7574;DHT22;3828;48.922;9.116;2023-02-28T03:55:17;-1.00;99.90
7574;DHT22;3828;48.922;9.116;2023-02-28T03:57:51;-1.00;99.90
7574;DHT22;3828;48.922;9.116;2023-02-28T04:00:27;-1.00;99.90
7574;DHT22;3828;48.922;9.116;2023-02-28T04:02:54;-1.00;99.90
7574;DHT22;3828;48.922;9.116;2023-02-28T04:05:22;-1.00;99.90
7574;DHT22;3828;48.922;9.116;2023-02-28T04:07:50;-1.00;99.90
7574;DHT22;3828;48.922;9.116;2023-02-28T04:10:18;-0.90;99.90
7574;DHT22;3828;48.922;9.116;2023-02-28T04:12:45;-0.90;99.90
7574;DHT22;3828;48.922;9.116;2023-02-28T04:15:12;-0.90;99.90
7574;DHT22;3828;48.922;9.116;2023-02-28T04:17:39;-1.00;99.90
7574;DHT22;3828;48.922;9.116;2023-02-28T04:20:07;-0.90;99.90
7574;DHT22;3828;48.922;9.116;2023-02-28T04:22:36;-0.90;99.90
7574;DHT22;3828;48.922;9.116;2023-02-28T04:25:08;-0.90;99.90
7574;DHT22;3828;48.922;9.116;2023-02-28T04:27:35;-0.90;99.90
7574;DHT22;3828;48.922;9.116;2023-02-28T04:37:23;-0.70;99.90
7574;DHT22;3828;48.922;9.116;2023-02-28T04:42:22;-0.70;99.90
7574;DHT22;3828;48.922;9.116;2023-02-28T04:44:49;-0.70;99.90
7574;DHT22;3828;48.922;9.116;2023-02-28T04:47:16;-0.70;99.90
7574;DHT22;3828;48.922;9.116;2023-02-28T04:52:10;-0.60;99.90
7574;DHT22;3828;48.922;9.116;2023-02-28T04:54:38;-0.60;99.90
7574;DHT22;3828;48.922;9.116;2023-02-28T04:57:06;-0.60;99.90
7574;DHT22;3828;48.922;9.116;2023-02-28T04:59:34;-0.60;99.90
7574;DHT22;3828;48.922;9.116;2023-02-28T05:04:32;-0.60;99.90
7574;DHT22;3828;48.922;9.116;2023-02-28T05:09:26;-0.60;99.90
7574;DHT22;3828;48.922;9.116;2023-02-28T05:11:55;-0.60;99.90
7574;DHT22;3828;48.922;9.116;2023-02-28T05:16:50;-0.60;99.90
7574;DHT22;3828;48.922;9.116;2023-02-28T05:19:17;-0.50;99.90
7574;DHT22;3828;48.922;9.116;2023-02-28T05:21:50;-0.50;99.90
7574;DHT22;3828;48.922;9.116;2023-02-28T05:24:18;-0.40;99.90
7574;DHT22;3828;48.922;9.116;2023-02-28T05:26:49;-0.40;99.90
7574;DHT22;3828;48.922;9.116;2023-02-28T05:29:16;-0.40;99.90
7574;DHT22;3828;48.922;9.116;2023-02-28T05:34:11;-0.40;99.90
7574;DHT22;3828;48.922;9.116;2023-02-28T05:36:41;-0.40;99.90
7574;DHT22;3828;48.922;9.116;2023-02-28T05:39:08;-0.50;99.90
7574;DHT22;3828;48.922;9.116;2023-02-28T05:41:39;-0.40;99.90
7574;DHT22;3828;48.922;9.116;2023-02-28T05:44:06;-0.40;99.90
7574;DHT22;3828;48.922;9.116;2023-02-28T05:46:32;-0.40;99.90
7574;DHT22;3828;48.922;9.116;2023-02-28T05:51:28;-0.40;99.90
7574;DHT22;3828;48.922;9.116;2023-02-28T05:53:58;-0.40;99.90
7574;DHT22;3828;48.922;9.116;2023-02-28T05:56:25;-0.30;99.90
7574;DHT22;3828;48.922;9.116;2023-02-28T05:58:52;-0.30;99.90
7574;DHT22;3828;48.922;9.116;2023-02-28T06:01:31;-0.30;99.90
7574;DHT22;3828;48.922;9.116;2023-02-28T06:03:59;-0.30;99.90
7574;DHT22;3828;48.922;9.116;2023-02-28T06:06:31;-0.30;99.90
7574;DHT22;3828;48.922;9.116;2023-02-28T06:09:00;-0.30;99.90
7574;DHT22;3828;48.922;9.116;2023-02-28T06:11:27;-0.40;99.90
7574;DHT22;3828;48.922;9.116;2023-02-28T06:13:54;-0.40;99.90
7574;DHT22;3828;48.922;9.116;2023-02-28T06:16:22;-0.40;99.90
7574;DHT22;3828;48.922;9.116;2023-02-28T06:18:48;-0.40;99.90
7574;DHT22;3828;48.922;9.116;2023-02-28T06:21:15;-0.40;99.90
7574;DHT22;3828;48.922;9.116;2023-02-28T06:23:43;-0.40;99.90
7574;DHT22;3828;48.922;9.116;2023-02-28T06:26:11;-0.30;99.90
7574;DHT22;3828;48.922;9.116;2023-02-28T06:28:37;-0.30;99.90
7574;DHT22;3828;48.922;9.116;2023-02-28T06:31:08;-0.30;99.90
7574;DHT22;3828;48.922;9.116;2023-02-28T06:33:39;-0.30;99.90
7574;DHT22;3828;48.922;9.116;2023-02-28T06:36:07;0.90;99.90
7574;DHT22;3828;48.922;9.116;2023-02-28T06:38:34;-0.20;99.90
7574;DHT22;3828;48.922;9.116;2023-02-28T06:41:03;-0.20;99.90
7574;DHT22;3828;48.922;9.116;2023-02-28T06:43:32;-0.20;99.90
7574;DHT22;3828;48.922;9.116;2023-02-28T06:46:00;-0.20;99.90
7574;DHT22;3828;48.922;9.116;2023-02-28T06:51:03;-0.10;99.90
7574;DHT22;3828;48.922;9.116;2023-02-28T06:53:31;0.00;99.90
7574;DHT22;3828;48.922;9.116;2023-02-28T06:55:58;0.00;99.90
7574;DHT22;3828;48.922;9.116;2023-02-28T06:58:26;0.10;99.90
7574;DHT22;3828;48.922;9.116;2023-02-28T07:00:53;0.10;99.90
7574;DHT22;3828;48.922;9.116;2023-02-28T07:03:20;0.10;99.90
7574;DHT22;3828;48.922;9.116;2023-02-28T07:05:46;0.10;99.90
7574;DHT22;3828;48.922;9.116;2023-02-28T07:10:41;0.20;99.90
7574;DHT22;3828;48.922;9.116;2023-02-28T07:13:08;0.20;99.90
7574;DHT22;3828;48.922;9.116;2023-02-28T07:15:37;0.20;99.90
7574;DHT22;3828;48.922;9.116;2023-02-28T07:20:31;0.20;99.90
7574;DHT22;3828;48.922;9.116;2023-02-28T07:22:58;0.20;99.90
7574;DHT22;3828;48.922;9.116;2023-02-28T07:25:26;0.10;99.90
7574;DHT22;3828;48.922;9.116;2023-02-28T07:27:54;0.10;99.90
7574;DHT22;3828;48.922;9.116;2023-02-28T07:30:21;0.10;99.90
7574;DHT22;3828;48.922;9.116;2023-02-28T07:32:49;0.10;99.90
7574;DHT22;3828;48.922;9.116;2023-02-28T07:35:16;0.20;99.90
7574;DHT22;3828;48.922;9.116;2023-02-28T07:37:44;0.30;99.90
7574;DHT22;3828;48.922;9.116;2023-02-28T07:40:13;0.30;99.90
7574;DHT22;3828;48.922;9.116;2023-02-28T07:42:41;0.30;99.90
7574;DHT22;3828;48.922;9.116;2023-02-28T07:45:10;0.30;99.90
7574;DHT22;3828;48.922;9.116;2023-02-28T07:47:38;0.30;99.90
7574;DHT22;3828;48.922;9.116;2023-02-28T07:50:08;0.30;99.90
7574;DHT22;3828;48.922;9.116;2023-02-28T07:52:36;0.40;99.90
7574;DHT22;3828;48.922;9.116;2023-02-28T07:55:04;0.40;99.90
7574;DHT22;3828;48.922;9.116;2023-02-28T07:57:31;0.40;99.90
7574;DHT22;3828;48.922;9.116;2023-02-28T07:59:58;0.50;99.90
7574;DHT22;3828;48.922;9.116;2023-02-28T08:04:52;0.40;99.90
7574;DHT22;3828;48.922;9.116;2023-02-28T08:07:20;0.40;99.90
7574;DHT22;3828;48.922;9.116;2023-02-28T08:09:47;0.50;99.90
7574;DHT22;3828;48.922;9.116;2023-02-28T08:12:14;0.50;99.90
7574;DHT22;3828;48.922;9.116;2023-02-28T08:14:41;0.50;99.90
7574;DHT22;3828;48.922;9.116;2023-02-28T08:19:34;0.50;99.90
7574;DHT22;3828;48.922;9.116;2023-02-28T08:24:30;0.70;99.90
7574;DHT22;3828;48.922;9.116;2023-02-28T08:26:56;0.80;99.90
7574;DHT22;3828;48.922;9.116;2023-02-28T08:29:23;0.70;99.90
7574;DHT22;3828;48.922;9.116;2023-02-28T08:31:50;0.70;99.90
7574;DHT22;3828;48.922;9.116;2023-02-28T08:34:17;0.90;99.90
7574;DHT22;3828;48.922;9.116;2023-02-28T08:36:44;0.80;99.90
7574;DHT22;3828;48.922;9.116;2023-02-28T08:39:11;0.90;99.90
7574;DHT22;3828;48.922;9.116;2023-02-28T08:41:45;1.00;99.90
7574;DHT22;3828;48.922;9.116;2023-02-28T08:44:14;1.00;99.90
7574;DHT22;3828;48.922;9.116;2023-02-28T08:46:43;1.10;99.90
7574;DHT22;3828;48.922;9.116;2023-02-28T08:49:11;0.90;99.90
7574;DHT22;3828;48.922;9.116;2023-02-28T08:51:39;1.20;99.90
7574;DHT22;3828;48.922;9.116;2023-02-28T08:54:11;1.30;99.90
7574;DHT22;3828;48.922;9.116;2023-02-28T08:56:42;1.20;99.90
7574;DHT22;3828;48.922;9.116;2023-02-28T08:59:11;1.30;99.90
7574;DHT22;3828;48.922;9.116;2023-02-28T09:01:39;1.30;99.90
7574;DHT22;3828;48.922;9.116;2023-02-28T09:04:11;1.40;99.90
7574;DHT22;3828;48.922;9.116;2023-02-28T09:06:40;1.50;99.90
7574;DHT22;3828;48.922;9.116;2023-02-28T09:09:08;1.60;99.90
7574;DHT22;3828;48.922;9.116;2023-02-28T09:11:38;1.70;99.90
7574;DHT22;3828;48.922;9.116;2023-02-28T09:14:08;1.80;99.90
7574;DHT22;3828;48.922;9.116;2023-02-28T09:16:38;1.90;99.90
7574;DHT22;3828;48.922;9.116;2023-02-28T09:21:37;2.10;99.90
7574;DHT22;3828;48.922;9.116;2023-02-28T09:24:05;2.10;99.90
7574;DHT22;3828;48.922;9.116;2023-02-28T09:26:32;2.20;99.90
7574;DHT22;3828;48.922;9.116;2023-02-28T09:29:03;2.40;99.90
7574;DHT22;3828;48.922;9.116;2023-02-28T09:31:35;2.50;99.90
7574;DHT22;3828;48.922;9.116;2023-02-28T09:34:07;2.50;99.90
7574;DHT22;3828;48.922;9.116;2023-02-28T09:36:35;2.50;99.90
7574;DHT22;3828;48.922;9.116;2023-02-28T09:39:09;2.60;99.90
7574;DHT22;3828;48.922;9.116;2023-02-28T09:41:39;2.50;99.90
7574;DHT22;3828;48.922;9.116;2023-02-28T09:44:17;2.50;99.90
7574;DHT22;3828;48.922;9.116;2023-02-28T09:46:53;2.60;99.90
7574;DHT22;3828;48.922;9.116;2023-02-28T09:49:31;2.60;99.90
7574;DHT22;3828;48.922;9.116;2023-02-28T09:52:05;2.70;99.90
7574;DHT22;3828;48.922;9.116;2023-02-28T09:54:36;2.60;99.90
7574;DHT22;3828;48.922;9.116;2023-02-28T09:57:14;2.60;99.90
7574;DHT22;3828;48.922;9.116;2023-02-28T09:59:55;2.50;99.90
7574;DHT22;3828;48.922;9.116;2023-02-28T10:05:49;2.60;99.90
7574;DHT22;3828;48.922;9.116;2023-02-28T10:08:22;2.70;99.90
7574;DHT22;3828;48.922;9.116;2023-02-28T10:10:55;2.70;99.90
7574;DHT22;3828;48.922;9.116;2023-02-28T10:13:31;2.60;99.90
7574;DHT22;3828;48.922;9.116;2023-02-28T10:16:07;2.70;99.90
7574;DHT22;3828;48.922;9.116;2023-02-28T10:18:41;2.70;99.90
7574;DHT22;3828;48.922;9.116;2023-02-28T10:21:21;2.80;99.90
7574;DHT22;3828;48.922;9.116;2023-02-28T10:23:59;2.80;99.90
7574;DHT22;3828;48.922;9.116;2023-02-28T10:26:32;2.70;99.90
7574;DHT22;3828;48.922;9.116;2023-02-28T10:29:00;2.80;99.90
7574;DHT22;3828;48.922;9.116;2023-02-28T10:31:32;2.80;99.90
7574;DHT22;3828;48.922;9.116;2023-02-28T10:34:02;2.90;99.90
7574;DHT22;3828;48.922;9.116;2023-02-28T10:36:34;3.00;99.90
7574;DHT22;3828;48.922;9.116;2023-02-28T10:39:35;3.10;99.90
7574;DHT22;3828;48.922;9.116;2023-02-28T10:42:19;3.20;99.90
7574;DHT22;3828;48.922;9.116;2023-02-28T10:44:49;3.30;99.90
7574;DHT22;3828;48.922;9.116;2023-02-28T10:47:19;3.30;99.90
7574;DHT22;3828;48.922;9.116;2023-02-28T10:49:47;3.10;99.90
7574;DHT22;3828;48.922;9.116;2023-02-28T10:52:33;3.20;99.90
7574;DHT22;3828;48.922;9.116;2023-02-28T10:55:16;3.30;99.90
7574;DHT22;3828;48.922;9.116;2023-02-28T11:00:19;3.50;99.90
7574;DHT22;3828;48.922;9.116;2023-02-28T11:02:47;3.70;99.90
7574;DHT22;3828;48.922;9.116;2023-02-28T11:05:26;4.00;99.90
7574;DHT22;3828;48.922;9.116;2023-02-28T11:07:57;4.20;99.90
7574;DHT22;3828;48.922;9.116;2023-02-28T11:10:29;4.30;99.90
7574;DHT22;3828;48.922;9.116;2023-02-28T11:12:58;4.50;99.90
7574;DHT22;3828;48.922;9.116;2023-02-28T11:15:27;4.80;99.90
7574;DHT22;3828;48.922;9.116;2023-02-28T11:17:55;5.30;99.90
7574;DHT22;3828;48.922;9.116;2023-02-28T11:20:24;5.70;99.90
7574;DHT22;3828;48.922;9.116;2023-02-28T11:22:52;6.30;99.90
7574;DHT22;3828;48.922;9.116;2023-02-28T11:25:24;6.50;99.90
7574;DHT22;3828;48.922;9.116;2023-02-28T11:27:52;6.40;99.90
7574;DHT22;3828;48.922;9.116;2023-02-28T11:30:35;6.30;99.90
7574;DHT22;3828;48.922;9.116;2023-02-28T11:33:23;6.40;99.90
7574;DHT22;3828;48.922;9.116;2023-02-28T11:35:55;6.70;99.90
7574;DHT22;3828;48.922;9.116;2023-02-28T11:38:24;7.30;99.90
7574;DHT22;3828;48.922;9.116;2023-02-28T11:41:03;7.30;99.90
7574;DHT22;3828;48.922;9.116;2023-02-28T11:43:42;3.50;99.90
7574;DHT22;3828;48.922;9.116;2023-02-28T11:46:19;7.20;99.90
7574;DHT22;3828;48.922;9.116;2023-02-28T11:48:54;7.90;99.90
7574;DHT22;3828;48.922;9.116;2023-02-28T11:51:28;8.20;99.90
7574;DHT22;3828;48.922;9.116;2023-02-28T11:54:24;7.80;99.90
7574;DHT22;3828;48.922;9.116;2023-02-28T11:56:58;7.90;99.90
7574;DHT22;3828;48.922;9.116;2023-02-28T11:59:42;7.70;99.90
7574;DHT22;3828;48.922;9.116;2023-02-28T12:02:22;7.30;99.90
7574;DHT22;3828;48.922;9.116;2023-02-28T12:04:58;6.90;99.90
7574;DHT22;3828;48.922;9.116;2023-02-28T12:07:33;7.60;99.90
7574;DHT22;3828;48.922;9.116;2023-02-28T12:10:06;8.50;99.90
7574;DHT22;3828;48.922;9.116;2023-02-28T12:12:45;9.20;99.90
7574;DHT22;3828;48.922;9.116;2023-02-28T12:15:32;9.30;99.90
7574;DHT22;3828;48.922;9.116;2023-02-28T12:18:26;8.90;99.90
7574;DHT22;3828;48.922;9.116;2023-02-28T12:21:03;9.70;99.90
7574;DHT22;3828;48.922;9.116;2023-02-28T12:23:53;10.30;99.90
7574;DHT22;3828;48.922;9.116;2023-02-28T12:26:31;11.10;99.90
7574;DHT22;3828;48.922;9.116;2023-02-28T12:29:10;12.00;99.90
7574;DHT22;3828;48.922;9.116;2023-02-28T12:31:40;11.80;99.00
7574;DHT22;3828;48.922;9.116;2023-02-28T12:34:13;12.20;98.70
7574;DHT22;3828;48.922;9.116;2023-02-28T12:36:44;12.30;98.00
7574;DHT22;3828;48.922;9.116;2023-02-28T12:39:19;12.50;97.50
7574;DHT22;3828;48.922;9.116;2023-02-28T12:41:53;12.90;97.30
7574;DHT22;3828;48.922;9.116;2023-02-28T12:44:26;12.50;96.20
7574;DHT22;3828;48.922;9.116;2023-02-28T12:46:59;12.70;96.20
7574;DHT22;3828;48.922;9.116;2023-02-28T12:49:31;12.90;94.70
7574;DHT22;3828;48.922;9.116;2023-02-28T12:52:08;12.70;94.80
7574;DHT22;3828;48.922;9.116;2023-02-28T12:54:44;12.80;94.90
7574;DHT22;3828;48.922;9.116;2023-02-28T12:57:18;12.80;93.70
7574;DHT22;3828;48.922;9.116;2023-02-28T12:59:54;12.80;93.90
7574;DHT22;3828;48.922;9.116;2023-02-28T13:02:54;13.00;93.30
7574;DHT22;3828;48.922;9.116;2023-02-28T13:06:05;13.30;93.70
7574;DHT22;3828;48.922;9.116;2023-02-28T13:08:58;12.80;92.70
7574;DHT22;3828;48.922;9.116;2023-02-28T13:11:29;12.80;94.40
7574;DHT22;3828;48.922;9.116;2023-02-28T13:13:58;12.60;94.30
7574;DHT22;3828;48.922;9.116;2023-02-28T13:16:27;12.70;93.10
7574;DHT22;3828;48.922;9.116;2023-02-28T13:19:09;12.90;93.80
7574;DHT22;3828;48.922;9.116;2023-02-28T13:21:42;13.20;92.70
7574;DHT22;3828;48.922;9.116;2023-02-28T13:29:43;13.10;92.60
7574;DHT22;3828;48.922;9.116;2023-02-28T13:32:31;13.20;92.10
7574;DHT22;3828;48.922;9.116;2023-02-28T13:38:36;13.50;92.70
7574;DHT22;3828;48.922;9.116;2023-02-28T13:41:40;13.90;92.50
7574;DHT22;3828;48.922;9.116;2023-02-28T13:44:09;14.30;89.80
7574;DHT22;3828;48.922;9.116;2023-02-28T13:49:43;13.80;91.70
7574;DHT22;3828;48.922;9.116;2023-02-28T13:52:14;14.30;90.60
7574;DHT22;3828;48.922;9.116;2023-02-28T13:57:48;13.30;90.70
7574;DHT22;3828;48.922;9.116;2023-02-28T14:00:28;13.80;90.40
7574;DHT22;3828;48.922;9.116;2023-02-28T14:03:26;13.90;90.00
7574;DHT22;3828;48.922;9.116;2023-02-28T14:06:15;13.90;90.40
7574;DHT22;3828;48.922;9.116;2023-02-28T14:08:50;14.00;90.20
7574;DHT22;3828;48.922;9.116;2023-02-28T14:11:29;14.10;89.10
7574;DHT22;3828;48.922;9.116;2023-02-28T14:16:25;13.40;91.10
7574;DHT22;3828;48.922;9.116;2023-02-28T14:18:57;13.20;90.20
7574;DHT22;3828;48.922;9.116;2023-02-28T14:21:28;13.40;90.40
7574;DHT22;3828;48.922;9.116;2023-02-28T14:24:34;13.20;90.90
7574;DHT22;3828;48.922;9.116;2023-02-28T14:27:29;13.00;91.30
7574;DHT22;3828;48.922;9.116;2023-02-28T14:33:14;13.70;90.70
7574;DHT22;3828;48.922;9.116;2023-02-28T14:36:01;13.90;90.50
7574;DHT22;3828;48.922;9.116;2023-02-28T14:38:33;13.40;90.60
7574;DHT22;3828;48.922;9.116;2023-02-28T14:41:05;12.70;90.10
7574;DHT22;3828;48.922;9.116;2023-02-28T14:46:02;12.80;91.40
7574;DHT22;3828;48.922;9.116;2023-02-28T14:50:59;13.10;91.20
7574;DHT22;3828;48.922;9.116;2023-02-28T14:53:29;13.70;91.00
7574;DHT22;3828;48.922;9.116;2023-02-28T14:55:58;13.80;90.30
7574;DHT22;3828;48.922;9.116;2023-02-28T14:58:27;13.80;90.50
7574;DHT22;3828;48.922;9.116;2023-02-28T15:00:56;13.70;90.20
7574;DHT22;3828;48.922;9.116;2023-02-28T15:03:27;13.20;90.10
7574;DHT22;3828;48.922;9.116;2023-02-28T15:05:58;12.70;90.40
7574;DHT22;3828;48.922;9.116;2023-02-28T15:08:26;12.80;90.60
7574;DHT22;3828;48.922;9.116;2023-02-28T15:10:58;12.90;90.80
7574;DHT22;3828;48.922;9.116;2023-02-28T15:13:33;12.40;91.60
7574;DHT22;3828;48.922;9.116;2023-02-28T15:16:04;12.30;91.10
7574;DHT22;3828;48.922;9.116;2023-02-28T15:18:37;12.60;91.50
7574;DHT22;3828;48.922;9.116;2023-02-28T15:21:11;12.40;91.00
7574;DHT22;3828;48.922;9.116;2023-02-28T15:23:40;12.50;91.40
7574;DHT22;3828;48.922;9.116;2023-02-28T15:26:14;12.70;91.00
7574;DHT22;3828;48.922;9.116;2023-02-28T15:31:20;12.20;91.90
7574;DHT22;3828;48.922;9.116;2023-02-28T15:33:52;12.00;91.70
7574;DHT22;3828;48.922;9.116;2023-02-28T15:38:50;12.10;91.40
7574;DHT22;3828;48.922;9.116;2023-02-28T15:41:25;12.20;92.30
7574;DHT22;3828;48.922;9.116;2023-02-28T15:44:14;12.30;92.00
7574;DHT22;3828;48.922;9.116;2023-02-28T15:46:43;10.80;91.70
7574;DHT22;3828;48.922;9.116;2023-02-28T15:49:16;11.40;92.20
7574;DHT22;3828;48.922;9.116;2023-02-28T15:54:14;14.40;95.00
7574;DHT22;3828;48.922;9.116;2023-02-28T15:56:46;10.00;93.70
7574;DHT22;3828;48.922;9.116;2023-02-28T15:59:17;9.90;94.90
7574;DHT22;3828;48.922;9.116;2023-02-28T16:04:14;9.20;95.10
7574;DHT22;3828;48.922;9.116;2023-02-28T16:06:42;8.60;96.20
7574;DHT22;3828;48.922;9.116;2023-02-28T16:09:11;8.40;96.50
7574;DHT22;3828;48.922;9.116;2023-02-28T16:11:44;8.30;97.30
7574;DHT22;3828;48.922;9.116;2023-02-28T16:14:16;8.20;97.60
7574;DHT22;3828;48.922;9.116;2023-02-28T16:16:45;8.40;97.70
7574;DHT22;3828;48.922;9.116;2023-02-28T16:24:07;8.00;97.30
7574;DHT22;3828;48.922;9.116;2023-02-28T16:29:04;7.40;98.50
7574;DHT22;3828;48.922;9.116;2023-02-28T16:31:35;7.20;99.10
7574;DHT22;3828;48.922;9.116;2023-02-28T16:41:26;6.00;99.90
7574;DHT22;3828;48.922;9.116;2023-02-28T16:43:55;5.60;99.90
7574;DHT22;3828;48.922;9.116;2023-02-28T16:46:29;5.30;99.90
7574;DHT22;3828;48.922;9.116;2023-02-28T16:56:21;4.70;99.90
7574;DHT22;3828;48.922;9.116;2023-02-28T17:01:18;4.50;99.90
7574;DHT22;3828;48.922;9.116;2023-02-28T17:03:49;4.40;99.90
7574;DHT22;3828;48.922;9.116;2023-02-28T17:06:18;4.30;99.90
7574;DHT22;3828;48.922;9.116;2023-02-28T17:08:48;4.20;99.90
7574;DHT22;3828;48.922;9.116;2023-02-28T17:16:16;3.80;99.90
7574;DHT22;3828;48.922;9.116;2023-02-28T17:21:14;3.50;99.90
7574;DHT22;3828;48.922;9.116;2023-02-28T17:26:13;3.30;99.90
7574;DHT22;3828;48.922;9.116;2023-02-28T17:31:08;3.10;99.90
7574;DHT22;3828;48.922;9.116;2023-02-28T17:36:02;3.00;99.90
7574;DHT22;3828;48.922;9.116;2023-02-28T17:38:31;2.90;99.90
7574;DHT22;3828;48.922;9.116;2023-02-28T17:45:52;2.80;99.90
7574;DHT22;3828;48.922;9.116;2023-02-28T17:48:19;2.70;99.90
7574;DHT22;3828;48.922;9.116;2023-02-28T17:53:13;2.60;99.90
7574;DHT22;3828;48.922;9.116;2023-02-28T17:55:42;2.50;99.90
7574;DHT22;3828;48.922;9.116;2023-02-28T17:58:09;2.40;99.90
7574;DHT22;3828;48.922;9.116;2023-02-28T18:05:32;2.30;99.90
7574;DHT22;3828;48.922;9.116;2023-02-28T18:08:00;2.20;99.90
7574;DHT22;3828;48.922;9.116;2023-02-28T18:10:27;2.10;99.90
7574;DHT22;3828;48.922;9.116;2023-02-28T18:13:00;2.10;99.90
7574;DHT22;3828;48.922;9.116;2023-02-28T18:17:56;2.00;99.90
7574;DHT22;3828;48.922;9.116;2023-02-28T18:20:23;2.00;99.90
7574;DHT22;3828;48.922;9.116;2023-02-28T18:25:20;1.90;99.90
7574;DHT22;3828;48.922;9.116;2023-02-28T18:27:47;1.90;99.90
7574;DHT22;3828;48.922;9.116;2023-02-28T18:30:24;1.90;99.90
7574;DHT22;3828;48.922;9.116;2023-02-28T18:38:00;1.70;99.90
7574;DHT22;3828;48.922;9.116;2023-02-28T18:42:55;1.50;99.90
7574;DHT22;3828;48.922;9.116;2023-02-28T18:45:26;1.60;99.90
7574;DHT22;3828;48.922;9.116;2023-02-28T18:47:52;1.50;99.90
7574;DHT22;3828;48.922;9.116;2023-02-28T18:50:19;1.50;99.90
7574;DHT22;3828;48.922;9.116;2023-02-28T18:52:46;1.40;99.90
7574;DHT22;3828;48.922;9.116;2023-02-28T18:57:44;1.40;99.90
7574;DHT22;3828;48.922;9.116;2023-02-28T19:00:12;1.30;99.90
7574;DHT22;3828;48.922;9.116;2023-02-28T19:02:41;1.40;99.90
7574;DHT22;3828;48.922;9.116;2023-02-28T19:05:08;1.40;99.90
7574;DHT22;3828;48.922;9.116;2023-02-28T19:10:05;1.30;99.90
7574;DHT22;3828;48.922;9.116;2023-02-28T19:12:33;1.30;99.90
7574;DHT22;3828;48.922;9.116;2023-02-28T19:15:00;1.30;99.90
7574;DHT22;3828;48.922;9.116;2023-02-28T19:19:56;1.40;99.90
7574;DHT22;3828;48.922;9.116;2023-02-28T19:27:18;1.40;99.90
7574;DHT22;3828;48.922;9.116;2023-02-28T19:29:47;1.30;99.90
7574;DHT22;3828;48.922;9.116;2023-02-28T19:32:14;1.40;99.90
7574;DHT22;3828;48.922;9.116;2023-02-28T19:37:10;1.40;99.90
7574;DHT22;3828;48.922;9.116;2023-02-28T19:42:07;1.40;99.90
7574;DHT22;3828;48.922;9.116;2023-02-28T19:44:34;1.40;99.90
7574;DHT22;3828;48.922;9.116;2023-02-28T19:49:28;1.30;99.90